sensor_id;sensor_type;location;lat;lon;timestamp;P1;durP1;ratioP1;P2;durP2;ratioP2
62102;SDS011;48077;48.104;11.702;2022-08-01T00:02:00;2.67;;;2.42;;
62102;SDS011;48077;48.104;11.702;2022-08-01T00:04:24;2.72;;;2.28;;
62102;SDS011;48077;48.104;11.702;2022-08-01T00:06:48;3.88;;;2.70;;
62102;SDS011;48077;48.104;11.702;2022-08-01T00:09:11;2.95;;;2.38;;
62102;SDS011;48077;48.104;11.702;2022-08-01T00:11:35;2.65;;;2.30;;
62102;SDS011;48077;48.104;11.702;2022-08-01T00:13:58;3.28;;;2.63;;
62102;SDS011;48077;48.104;11.702;2022-08-01T00:16:22;4.00;;;2.78;;
62102;SDS011;48077;48.104;11.702;2022-08-01T00:18:45;3.00;;;2.40;;
62102;SDS011;48077;48.104;11.702;2022-08-01T00:21:09;3.50;;;2.80;;
62102;SDS011;48077;48.104;11.702;2022-08-01T00:23:32;3.10;;;2.63;;
62102;SDS011;48077;48.104;11.702;2022-08-01T00:25:59;4.05;;;2.40;;
62102;SDS011;48077;48.104;11.702;2022-08-01T00:28:22;2.47;;;2.22;;
62102;SDS011;48077;48.104;11.702;2022-08-01T00:30:46;3.55;;;2.50;;
62102;SDS011;48077;48.104;11.702;2022-08-01T00:33:09;3.55;;;2.95;;
62102;SDS011;48077;48.104;11.702;2022-08-01T00:35:33;3.50;;;2.50;;
62102;SDS011;48077;48.104;11.702;2022-08-01T00:37:56;2.65;;;2.40;;
62102;SDS011;48077;48.104;11.702;2022-08-01T00:40:20;4.07;;;2.70;;
62102;SDS011;48077;48.104;11.702;2022-08-01T00:42:43;2.67;;;2.40;;
62102;SDS011;48077;48.104;11.702;2022-08-01T00:45:07;5.32;;;3.33;;
62102;SDS011;48077;48.104;11.702;2022-08-01T00:47:30;2.67;;;2.47;;
62102;SDS011;48077;48.104;11.702;2022-08-01T00:49:54;2.40;;;2.20;;
62102;SDS011;48077;48.104;11.702;2022-08-01T00:52:17;4.93;;;2.92;;
62102;SDS011;48077;48.104;11.702;2022-08-01T00:54:41;2.80;;;2.55;;
62102;SDS011;48077;48.104;11.702;2022-08-01T00:57:05;3.63;;;2.90;;
62102;SDS011;48077;48.104;11.702;2022-08-01T00:59:28;3.20;;;2.80;;
62102;SDS011;48077;48.104;11.702;2022-08-01T01:01:52;4.32;;;2.80;;
62102;SDS011;48077;48.104;11.702;2022-08-01T01:04:16;3.15;;;2.80;;
62102;SDS011;48077;48.104;11.702;2022-08-01T01:15:02;2.35;;;2.15;;
62102;SDS011;48077;48.104;11.702;2022-08-01T01:17:35;3.00;;;2.65;;
62102;SDS011;48077;48.104;11.702;2022-08-01T01:20:03;3.67;;;3.05;;
62102;SDS011;48077;48.104;11.702;2022-08-01T01:22:36;3.22;;;2.58;;
62102;SDS011;48077;48.104;11.702;2022-08-01T01:30:41;3.95;;;2.80;;
62102;SDS011;48077;48.104;11.702;2022-08-01T01:33:07;3.40;;;2.83;;
62102;SDS011;48077;48.104;11.702;2022-08-01T01:35:34;2.75;;;2.55;;
62102;SDS011;48077;48.104;11.702;2022-08-01T01:38:04;2.50;;;2.30;;
62102;SDS011;48077;48.104;11.702;2022-08-01T01:40:32;2.92;;;2.35;;
62102;SDS011;48077;48.104;11.702;2022-08-01T01:42:55;2.78;;;2.28;;
62102;SDS011;48077;48.104;11.702;2022-08-01T01:45:19;3.05;;;2.60;;
62102;SDS011;48077;48.104;11.702;2022-08-01T01:47:46;2.90;;;2.50;;
62102;SDS011;48077;48.104;11.702;2022-08-01T01:50:10;5.65;;;2.95;;
62102;SDS011;48077;48.104;11.702;2022-08-01T01:52:35;3.22;;;2.47;;
62102;SDS011;48077;48.104;11.702;2022-08-01T01:55:01;3.20;;;2.50;;
62102;SDS011;48077;48.104;11.702;2022-08-01T01:57:28;2.47;;;2.20;;
62102;SDS011;48077;48.104;11.702;2022-08-01T01:59:54;2.60;;;2.30;;
62102;SDS011;48077;48.104;11.702;2022-08-01T02:02:19;3.80;;;2.60;;
62102;SDS011;48077;48.104;11.702;2022-08-01T02:04:46;3.17;;;2.63;;
62102;SDS011;48077;48.104;11.702;2022-08-01T02:07:12;4.05;;;2.70;;
62102;SDS011;48077;48.104;11.702;2022-08-01T02:09:41;3.15;;;2.75;;
62102;SDS011;48077;48.104;11.702;2022-08-01T02:12:06;3.22;;;2.50;;
62102;SDS011;48077;48.104;11.702;2022-08-01T02:14:33;4.60;;;2.55;;
62102;SDS011;48077;48.104;11.702;2022-08-01T02:16:58;3.30;;;2.88;;
62102;SDS011;48077;48.104;11.702;2022-08-01T02:19:23;3.45;;;2.50;;
62102;SDS011;48077;48.104;11.702;2022-08-01T02:27:10;4.25;;;2.42;;
62102;SDS011;48077;48.104;11.702;2022-08-01T02:29:38;2.90;;;2.60;;
62102;SDS011;48077;48.104;11.702;2022-08-01T02:34:31;4.45;;;2.50;;
62102;SDS011;48077;48.104;11.702;2022-08-01T02:36:59;3.33;;;2.80;;
62102;SDS011;48077;48.104;11.702;2022-08-01T02:39:24;2.60;;;2.08;;
62102;SDS011;48077;48.104;11.702;2022-08-01T02:41:55;3.70;;;2.45;;
62102;SDS011;48077;48.104;11.702;2022-08-01T02:44:24;2.80;;;2.35;;
62102;SDS011;48077;48.104;11.702;2022-08-01T02:46:52;3.42;;;2.45;;
62102;SDS011;48077;48.104;11.702;2022-08-01T02:49:20;4.78;;;3.13;;
62102;SDS011;48077;48.104;11.702;2022-08-01T02:51:47;4.22;;;2.80;;
62102;SDS011;48077;48.104;11.702;2022-08-01T02:54:12;4.32;;;2.80;;
62102;SDS011;48077;48.104;11.702;2022-08-01T02:56:39;2.53;;;2.20;;
62102;SDS011;48077;48.104;11.702;2022-08-01T02:59:05;3.58;;;2.45;;
62102;SDS011;48077;48.104;11.702;2022-08-01T03:01:34;3.33;;;2.72;;
62102;SDS011;48077;48.104;11.702;2022-08-01T03:03:59;2.42;;;2.10;;
62102;SDS011;48077;48.104;11.702;2022-08-01T03:06:24;3.10;;;2.33;;
62102;SDS011;48077;48.104;11.702;2022-08-01T03:08:48;2.78;;;2.13;;
62102;SDS011;48077;48.104;11.702;2022-08-01T03:11:12;4.40;;;2.65;;
62102;SDS011;48077;48.104;11.702;2022-08-01T03:13:37;2.63;;;2.38;;
62102;SDS011;48077;48.104;11.702;2022-08-01T03:16:01;3.70;;;2.33;;
62102;SDS011;48077;48.104;11.702;2022-08-01T03:18:27;3.15;;;2.58;;
62102;SDS011;48077;48.104;11.702;2022-08-01T03:20:52;2.83;;;2.40;;
62102;SDS011;48077;48.104;11.702;2022-08-01T03:23:19;3.35;;;2.42;;
62102;SDS011;48077;48.104;11.702;2022-08-01T03:25:45;3.30;;;2.08;;
62102;SDS011;48077;48.104;11.702;2022-08-01T03:28:11;3.22;;;2.30;;
62102;SDS011;48077;48.104;11.702;2022-08-01T03:30:37;3.30;;;2.30;;
62102;SDS011;48077;48.104;11.702;2022-08-01T03:33:03;2.83;;;2.38;;
62102;SDS011;48077;48.104;11.702;2022-08-01T03:35:28;3.28;;;2.25;;
62102;SDS011;48077;48.104;11.702;2022-08-01T03:37:56;2.30;;;2.10;;
62102;SDS011;48077;48.104;11.702;2022-08-01T03:40:23;5.13;;;3.03;;
62102;SDS011;48077;48.104;11.702;2022-08-01T03:42:50;3.08;;;2.45;;
62102;SDS011;48077;48.104;11.702;2022-08-01T03:45:22;3.72;;;2.45;;
62102;SDS011;48077;48.104;11.702;2022-08-01T03:47:52;3.47;;;2.40;;
62102;SDS011;48077;48.104;11.702;2022-08-01T03:50:22;2.72;;;2.30;;
62102;SDS011;48077;48.104;11.702;2022-08-01T03:52:47;2.40;;;2.20;;
62102;SDS011;48077;48.104;11.702;2022-08-01T03:55:13;3.22;;;2.30;;
62102;SDS011;48077;48.104;11.702;2022-08-01T03:57:39;3.72;;;2.55;;
62102;SDS011;48077;48.104;11.702;2022-08-01T04:00:05;2.50;;;2.05;;
62102;SDS011;48077;48.104;11.702;2022-08-01T04:02:31;4.55;;;2.35;;
62102;SDS011;48077;48.104;11.702;2022-08-01T04:04:55;3.38;;;2.30;;
62102;SDS011;48077;48.104;11.702;2022-08-01T04:07:26;3.08;;;2.45;;
62102;SDS011;48077;48.104;11.702;2022-08-01T04:09:52;2.55;;;2.08;;
62102;SDS011;48077;48.104;11.702;2022-08-01T04:12:15;4.95;;;2.88;;
62102;SDS011;48077;48.104;11.702;2022-08-01T04:14:38;2.90;;;2.30;;
62102;SDS011;48077;48.104;11.702;2022-08-01T04:17:02;3.15;;;2.30;;
62102;SDS011;48077;48.104;11.702;2022-08-01T04:19:25;2.58;;;2.20;;
62102;SDS011;48077;48.104;11.702;2022-08-01T04:21:48;2.35;;;2.15;;
62102;SDS011;48077;48.104;11.702;2022-08-01T04:24:13;3.35;;;2.60;;
62102;SDS011;48077;48.104;11.702;2022-08-01T04:26:41;3.30;;;2.07;;
62102;SDS011;48077;48.104;11.702;2022-08-01T04:29:08;3.95;;;2.40;;
62102;SDS011;48077;48.104;11.702;2022-08-01T04:31:32;2.85;;;2.20;;
62102;SDS011;48077;48.104;11.702;2022-08-01T04:33:58;3.15;;;2.38;;
62102;SDS011;48077;48.104;11.702;2022-08-01T04:36:24;2.45;;;1.90;;
62102;SDS011;48077;48.104;11.702;2022-08-01T04:38:52;3.85;;;2.40;;
62102;SDS011;48077;48.104;11.702;2022-08-01T04:41:21;3.63;;;2.47;;
62102;SDS011;48077;48.104;11.702;2022-08-01T04:43:45;3.40;;;2.22;;
62102;SDS011;48077;48.104;11.702;2022-08-01T04:46:14;3.30;;;2.50;;
62102;SDS011;48077;48.104;11.702;2022-08-01T04:48:38;3.38;;;2.70;;
62102;SDS011;48077;48.104;11.702;2022-08-01T04:51:03;4.03;;;2.03;;
62102;SDS011;48077;48.104;11.702;2022-08-01T04:53:27;2.40;;;2.20;;
62102;SDS011;48077;48.104;11.702;2022-08-01T04:55:51;2.50;;;2.20;;
62102;SDS011;48077;48.104;11.702;2022-08-01T04:58:14;3.45;;;2.50;;
62102;SDS011;48077;48.104;11.702;2022-08-01T05:00:38;3.47;;;2.40;;
62102;SDS011;48077;48.104;11.702;2022-08-01T05:03:01;3.38;;;2.63;;
62102;SDS011;48077;48.104;11.702;2022-08-01T05:05:25;3.17;;;2.38;;
62102;SDS011;48077;48.104;11.702;2022-08-01T05:07:53;3.92;;;2.60;;
62102;SDS011;48077;48.104;11.702;2022-08-01T05:10:17;3.15;;;2.40;;
62102;SDS011;48077;48.104;11.702;2022-08-01T05:12:41;2.58;;;2.38;;
62102;SDS011;48077;48.104;11.702;2022-08-01T05:15:04;3.03;;;2.35;;
62102;SDS011;48077;48.104;11.702;2022-08-01T05:17:29;3.10;;;2.15;;
62102;SDS011;48077;48.104;11.702;2022-08-01T05:19:52;2.67;;;2.28;;
62102;SDS011;48077;48.104;11.702;2022-08-01T05:22:16;3.40;;;2.17;;
62102;SDS011;48077;48.104;11.702;2022-08-01T05:24:39;2.97;;;2.22;;
62102;SDS011;48077;48.104;11.702;2022-08-01T05:27:03;4.50;;;2.38;;
62102;SDS011;48077;48.104;11.702;2022-08-01T05:29:27;3.50;;;2.65;;
62102;SDS011;48077;48.104;11.702;2022-08-01T05:31:51;2.80;;;2.20;;
62102;SDS011;48077;48.104;11.702;2022-08-01T05:34:14;2.72;;;2.13;;
62102;SDS011;48077;48.104;11.702;2022-08-01T05:36:38;2.95;;;2.22;;
62102;SDS011;48077;48.104;11.702;2022-08-01T05:39:01;4.07;;;2.83;;
62102;SDS011;48077;48.104;11.702;2022-08-01T05:41:24;5.50;;;2.28;;
62102;SDS011;48077;48.104;11.702;2022-08-01T05:43:48;2.75;;;2.55;;
62102;SDS011;48077;48.104;11.702;2022-08-01T05:46:11;2.40;;;2.20;;
62102;SDS011;48077;48.104;11.702;2022-08-01T05:48:35;3.08;;;2.53;;
62102;SDS011;48077;48.104;11.702;2022-08-01T05:50:59;3.40;;;2.45;;
62102;SDS011;48077;48.104;11.702;2022-08-01T05:53:22;3.40;;;2.35;;
62102;SDS011;48077;48.104;11.702;2022-08-01T05:55:46;2.60;;;2.30;;
62102;SDS011;48077;48.104;11.702;2022-08-01T05:58:09;3.53;;;2.53;;
62102;SDS011;48077;48.104;11.702;2022-08-01T06:00:32;3.70;;;2.58;;
62102;SDS011;48077;48.104;11.702;2022-08-01T06:02:56;4.75;;;2.72;;
62102;SDS011;48077;48.104;11.702;2022-08-01T06:05:19;4.00;;;3.20;;
62102;SDS011;48077;48.104;11.702;2022-08-01T06:07:42;6.38;;;2.83;;
62102;SDS011;48077;48.104;11.702;2022-08-01T06:10:06;4.35;;;2.85;;
62102;SDS011;48077;48.104;11.702;2022-08-01T06:12:32;3.30;;;2.33;;
62102;SDS011;48077;48.104;11.702;2022-08-01T06:14:56;4.40;;;2.78;;
62102;SDS011;48077;48.104;11.702;2022-08-01T06:17:20;5.28;;;3.25;;
62102;SDS011;48077;48.104;11.702;2022-08-01T06:19:44;4.22;;;3.08;;
62102;SDS011;48077;48.104;11.702;2022-08-01T06:22:07;5.43;;;3.25;;
62102;SDS011;48077;48.104;11.702;2022-08-01T06:24:30;4.63;;;2.83;;
62102;SDS011;48077;48.104;11.702;2022-08-01T06:26:54;4.97;;;3.40;;
62102;SDS011;48077;48.104;11.702;2022-08-01T06:29:17;4.10;;;2.90;;
62102;SDS011;48077;48.104;11.702;2022-08-01T06:31:41;4.00;;;3.28;;
62102;SDS011;48077;48.104;11.702;2022-08-01T06:34:04;3.35;;;3.05;;
62102;SDS011;48077;48.104;11.702;2022-08-01T06:36:27;3.83;;;2.75;;
62102;SDS011;48077;48.104;11.702;2022-08-01T06:38:51;4.15;;;2.78;;
62102;SDS011;48077;48.104;11.702;2022-08-01T06:41:14;5.35;;;3.40;;
62102;SDS011;48077;48.104;11.702;2022-08-01T06:43:38;5.28;;;3.45;;
62102;SDS011;48077;48.104;11.702;2022-08-01T06:46:01;5.75;;;3.35;;
62102;SDS011;48077;48.104;11.702;2022-08-01T06:48:24;3.67;;;3.10;;
62102;SDS011;48077;48.104;11.702;2022-08-01T06:50:48;6.43;;;3.20;;
62102;SDS011;48077;48.104;11.702;2022-08-01T06:53:11;5.53;;;3.30;;
62102;SDS011;48077;48.104;11.702;2022-08-01T06:55:34;6.32;;;3.40;;
62102;SDS011;48077;48.104;11.702;2022-08-01T06:57:58;4.70;;;3.55;;
62102;SDS011;48077;48.104;11.702;2022-08-01T07:00:22;3.88;;;2.88;;
62102;SDS011;48077;48.104;11.702;2022-08-01T07:02:50;4.78;;;3.63;;
62102;SDS011;48077;48.104;11.702;2022-08-01T07:05:15;4.10;;;3.00;;
62102;SDS011;48077;48.104;11.702;2022-08-01T07:07:38;4.60;;;2.90;;
62102;SDS011;48077;48.104;11.702;2022-08-01T07:10:02;4.60;;;3.28;;
62102;SDS011;48077;48.104;11.702;2022-08-01T07:12:26;4.38;;;2.92;;
62102;SDS011;48077;48.104;11.702;2022-08-01T07:14:49;4.80;;;3.38;;
62102;SDS011;48077;48.104;11.702;2022-08-01T07:17:13;6.00;;;3.25;;
62102;SDS011;48077;48.104;11.702;2022-08-01T07:19:36;5.65;;;3.20;;
62102;SDS011;48077;48.104;11.702;2022-08-01T07:22:00;4.25;;;3.45;;
62102;SDS011;48077;48.104;11.702;2022-08-01T07:24:23;4.72;;;3.25;;
62102;SDS011;48077;48.104;11.702;2022-08-01T07:26:48;3.78;;;3.33;;
62102;SDS011;48077;48.104;11.702;2022-08-01T07:29:11;5.57;;;3.58;;
62102;SDS011;48077;48.104;11.702;2022-08-01T07:31:35;4.03;;;3.20;;
62102;SDS011;48077;48.104;11.702;2022-08-01T07:33:58;4.68;;;3.70;;
62102;SDS011;48077;48.104;11.702;2022-08-01T07:36:21;3.17;;;2.88;;
62102;SDS011;48077;48.104;11.702;2022-08-01T07:38:45;4.72;;;2.78;;
62102;SDS011;48077;48.104;11.702;2022-08-01T07:41:08;6.43;;;3.55;;
62102;SDS011;48077;48.104;11.702;2022-08-01T07:43:32;4.25;;;3.15;;
62102;SDS011;48077;48.104;11.702;2022-08-01T07:45:55;4.55;;;3.47;;
62102;SDS011;48077;48.104;11.702;2022-08-01T07:48:18;4.03;;;3.20;;
62102;SDS011;48077;48.104;11.702;2022-08-01T07:50:44;4.13;;;3.30;;
62102;SDS011;48077;48.104;11.702;2022-08-01T07:53:07;4.90;;;3.38;;
62102;SDS011;48077;48.104;11.702;2022-08-01T07:55:33;5.20;;;3.35;;
62102;SDS011;48077;48.104;11.702;2022-08-01T07:57:56;4.97;;;3.70;;
62102;SDS011;48077;48.104;11.702;2022-08-01T08:00:19;5.40;;;3.85;;
62102;SDS011;48077;48.104;11.702;2022-08-01T08:02:43;4.45;;;3.40;;
62102;SDS011;48077;48.104;11.702;2022-08-01T08:05:07;4.72;;;4.00;;
62102;SDS011;48077;48.104;11.702;2022-08-01T08:07:31;4.45;;;3.70;;
62102;SDS011;48077;48.104;11.702;2022-08-01T08:09:54;5.25;;;3.72;;
62102;SDS011;48077;48.104;11.702;2022-08-01T08:12:17;3.60;;;3.30;;
62102;SDS011;48077;48.104;11.702;2022-08-01T08:14:41;5.40;;;3.38;;
62102;SDS011;48077;48.104;11.702;2022-08-01T08:17:05;5.03;;;3.47;;
62102;SDS011;48077;48.104;11.702;2022-08-01T08:19:29;3.63;;;3.22;;
62102;SDS011;48077;48.104;11.702;2022-08-01T08:21:54;3.55;;;3.25;;
62102;SDS011;48077;48.104;11.702;2022-08-01T08:24:17;4.07;;;3.47;;
62102;SDS011;48077;48.104;11.702;2022-08-01T08:26:44;5.57;;;3.90;;
62102;SDS011;48077;48.104;11.702;2022-08-01T08:29:07;5.38;;;4.00;;
62102;SDS011;48077;48.104;11.702;2022-08-01T08:31:30;4.60;;;3.88;;
62102;SDS011;48077;48.104;11.702;2022-08-01T08:33:54;6.55;;;3.72;;
62102;SDS011;48077;48.104;11.702;2022-08-01T08:36:17;5.68;;;3.65;;
62102;SDS011;48077;48.104;11.702;2022-08-01T08:38:41;5.80;;;3.63;;
62102;SDS011;48077;48.104;11.702;2022-08-01T08:41:04;3.80;;;3.42;;
62102;SDS011;48077;48.104;11.702;2022-08-01T08:43:27;4.53;;;3.40;;
62102;SDS011;48077;48.104;11.702;2022-08-01T08:45:51;4.72;;;3.50;;
62102;SDS011;48077;48.104;11.702;2022-08-01T08:48:15;7.10;;;3.83;;
62102;SDS011;48077;48.104;11.702;2022-08-01T08:50:40;8.30;;;4.05;;
62102;SDS011;48077;48.104;11.702;2022-08-01T08:53:06;4.78;;;3.22;;
62102;SDS011;48077;48.104;11.702;2022-08-01T08:55:34;5.53;;;3.72;;
62102;SDS011;48077;48.104;11.702;2022-08-01T08:57:58;3.80;;;3.30;;
62102;SDS011;48077;48.104;11.702;2022-08-01T09:00:23;4.93;;;3.80;;
62102;SDS011;48077;48.104;11.702;2022-08-01T09:02:47;3.53;;;2.72;;
62102;SDS011;48077;48.104;11.702;2022-08-01T09:05:12;6.53;;;4.35;;
62102;SDS011;48077;48.104;11.702;2022-08-01T09:07:36;4.18;;;3.10;;
62102;SDS011;48077;48.104;11.702;2022-08-01T09:09:59;3.58;;;3.22;;
62102;SDS011;48077;48.104;11.702;2022-08-01T09:12:22;4.45;;;3.08;;
62102;SDS011;48077;48.104;11.702;2022-08-01T09:14:47;3.00;;;2.70;;
62102;SDS011;48077;48.104;11.702;2022-08-01T09:17:12;6.50;;;2.97;;
62102;SDS011;48077;48.104;11.702;2022-08-01T09:19:37;2.70;;;2.42;;
62102;SDS011;48077;48.104;11.702;2022-08-01T09:22:02;2.95;;;2.63;;
62102;SDS011;48077;48.104;11.702;2022-08-01T09:24:28;3.55;;;3.15;;
62102;SDS011;48077;48.104;11.702;2022-08-01T09:26:53;3.63;;;2.70;;
62102;SDS011;48077;48.104;11.702;2022-08-01T09:29:18;4.80;;;2.88;;
62102;SDS011;48077;48.104;11.702;2022-08-01T09:31:44;3.30;;;2.20;;
62102;SDS011;48077;48.104;11.702;2022-08-01T09:34:08;3.88;;;2.72;;
62102;SDS011;48077;48.104;11.702;2022-08-01T09:39:20;4.35;;;2.83;;
62102;SDS011;48077;48.104;11.702;2022-08-01T09:41:47;5.25;;;2.83;;
62102;SDS011;48077;48.104;11.702;2022-08-01T09:44:12;5.07;;;3.03;;
62102;SDS011;48077;48.104;11.702;2022-08-01T09:46:35;3.53;;;2.55;;
62102;SDS011;48077;48.104;11.702;2022-08-01T09:51:29;4.40;;;2.55;;
62102;SDS011;48077;48.104;11.702;2022-08-01T09:53:57;3.85;;;2.97;;
62102;SDS011;48077;48.104;11.702;2022-08-01T09:56:22;4.90;;;2.63;;
62102;SDS011;48077;48.104;11.702;2022-08-01T09:58:49;3.28;;;2.40;;
62102;SDS011;48077;48.104;11.702;2022-08-01T10:01:16;6.65;;;2.65;;
62102;SDS011;48077;48.104;11.702;2022-08-01T10:03:40;5.18;;;2.72;;
62102;SDS011;48077;48.104;11.702;2022-08-01T10:06:18;2.65;;;2.45;;
62102;SDS011;48077;48.104;11.702;2022-08-01T10:08:46;3.00;;;2.35;;
62102;SDS011;48077;48.104;11.702;2022-08-01T10:11:11;3.87;;;2.97;;
62102;SDS011;48077;48.104;11.702;2022-08-01T10:13:35;3.45;;;2.30;;
62102;SDS011;48077;48.104;11.702;2022-08-01T10:16:00;2.50;;;2.30;;
62102;SDS011;48077;48.104;11.702;2022-08-01T10:18:23;2.58;;;2.20;;
62102;SDS011;48077;48.104;11.702;2022-08-01T10:20:47;4.85;;;2.55;;
62102;SDS011;48077;48.104;11.702;2022-08-01T10:23:10;4.63;;;2.83;;
62102;SDS011;48077;48.104;11.702;2022-08-01T10:25:35;5.45;;;3.40;;
62102;SDS011;48077;48.104;11.702;2022-08-01T10:30:42;3.70;;;2.45;;
62102;SDS011;48077;48.104;11.702;2022-08-01T10:33:06;2.45;;;2.25;;
62102;SDS011;48077;48.104;11.702;2022-08-01T10:35:29;8.02;;;2.20;;
62102;SDS011;48077;48.104;11.702;2022-08-01T10:37:54;3.55;;;2.50;;
62102;SDS011;48077;48.104;11.702;2022-08-01T10:40:20;4.13;;;2.63;;
62102;SDS011;48077;48.104;11.702;2022-08-01T10:42:44;3.55;;;2.88;;
62102;SDS011;48077;48.104;11.702;2022-08-01T10:45:12;3.30;;;2.58;;
62102;SDS011;48077;48.104;11.702;2022-08-01T10:48:39;2.63;;;2.22;;
62102;SDS011;48077;48.104;11.702;2022-08-01T10:50:49;2.85;;;2.17;;
62102;SDS011;48077;48.104;11.702;2022-08-01T10:53:16;3.03;;;2.20;;
62102;SDS011;48077;48.104;11.702;2022-08-01T10:58:19;3.38;;;2.42;;
62102;SDS011;48077;48.104;11.702;2022-08-01T11:00:44;3.05;;;2.28;;
62102;SDS011;48077;48.104;11.702;2022-08-01T11:03:08;3.47;;;2.55;;
62102;SDS011;48077;48.104;11.702;2022-08-01T11:05:32;3.40;;;2.30;;
62102;SDS011;48077;48.104;11.702;2022-08-01T11:07:58;2.08;;;1.88;;
62102;SDS011;48077;48.104;11.702;2022-08-01T11:10:39;4.13;;;2.20;;
62102;SDS011;48077;48.104;11.702;2022-08-01T11:13:06;3.17;;;2.22;;
62102;SDS011;48077;48.104;11.702;2022-08-01T11:17:58;3.00;;;2.30;;
62102;SDS011;48077;48.104;11.702;2022-08-01T11:30:47;3.80;;;2.58;;
62102;SDS011;48077;48.104;11.702;2022-08-01T11:33:13;2.30;;;2.10;;
62102;SDS011;48077;48.104;11.702;2022-08-01T11:35:38;2.38;;;1.90;;
62102;SDS011;48077;48.104;11.702;2022-08-01T11:38:32;2.20;;;1.90;;
62102;SDS011;48077;48.104;11.702;2022-08-01T11:46:46;4.65;;;1.92;;
62102;SDS011;48077;48.104;11.702;2022-08-01T11:49:46;2.85;;;2.25;;
62102;SDS011;48077;48.104;11.702;2022-08-01T11:52:18;2.83;;;2.20;;
62102;SDS011;48077;48.104;11.702;2022-08-01T11:54:48;2.67;;;2.10;;
62102;SDS011;48077;48.104;11.702;2022-08-01T11:57:18;3.97;;;2.63;;
62102;SDS011;48077;48.104;11.702;2022-08-01T11:59:44;4.60;;;2.40;;
62102;SDS011;48077;48.104;11.702;2022-08-01T12:02:23;3.60;;;2.45;;
62102;SDS011;48077;48.104;11.702;2022-08-01T12:04:52;2.42;;;2.20;;
62102;SDS011;48077;48.104;11.702;2022-08-01T12:07:18;5.47;;;2.47;;
62102;SDS011;48077;48.104;11.702;2022-08-01T12:09:41;3.40;;;2.35;;
62102;SDS011;48077;48.104;11.702;2022-08-01T12:12:05;4.85;;;2.35;;
62102;SDS011;48077;48.104;11.702;2022-08-01T12:14:28;2.63;;;1.90;;
62102;SDS011;48077;48.104;11.702;2022-08-01T12:16:52;2.35;;;2.00;;
62102;SDS011;48077;48.104;11.702;2022-08-01T12:19:19;2.65;;;2.45;;
62102;SDS011;48077;48.104;11.702;2022-08-01T12:22:04;3.38;;;1.80;;
62102;SDS011;48077;48.104;11.702;2022-08-01T12:24:30;1.83;;;1.55;;
62102;SDS011;48077;48.104;11.702;2022-08-01T12:26:53;2.15;;;1.60;;
62102;SDS011;48077;48.104;11.702;2022-08-01T12:29:32;2.90;;;2.08;;
62102;SDS011;48077;48.104;11.702;2022-08-01T12:32:22;2.55;;;1.95;;
62102;SDS011;48077;48.104;11.702;2022-08-01T12:34:51;3.60;;;1.80;;
62102;SDS011;48077;48.104;11.702;2022-08-01T12:37:15;2.50;;;1.92;;
62102;SDS011;48077;48.104;11.702;2022-08-01T12:39:39;3.13;;;2.20;;
62102;SDS011;48077;48.104;11.702;2022-08-01T12:42:05;2.00;;;1.80;;
62102;SDS011;48077;48.104;11.702;2022-08-01T12:44:30;2.17;;;1.67;;
62102;SDS011;48077;48.104;11.702;2022-08-01T12:46:53;2.55;;;1.90;;
62102;SDS011;48077;48.104;11.702;2022-08-01T12:49:20;2.58;;;1.80;;
62102;SDS011;48077;48.104;11.702;2022-08-01T12:51:44;2.25;;;1.80;;
62102;SDS011;48077;48.104;11.702;2022-08-01T12:54:08;2.47;;;1.73;;
62102;SDS011;48077;48.104;11.702;2022-08-01T12:56:33;2.22;;;1.55;;
62102;SDS011;48077;48.104;11.702;2022-08-01T12:58:57;2.38;;;1.55;;
62102;SDS011;48077;48.104;11.702;2022-08-01T13:01:24;3.42;;;1.70;;
62102;SDS011;48077;48.104;11.702;2022-08-01T13:04:02;1.70;;;1.50;;
62102;SDS011;48077;48.104;11.702;2022-08-01T13:06:29;3.15;;;1.70;;
62102;SDS011;48077;48.104;11.702;2022-08-01T13:08:53;2.92;;;1.73;;
62102;SDS011;48077;48.104;11.702;2022-08-01T13:11:17;2.65;;;1.80;;
62102;SDS011;48077;48.104;11.702;2022-08-01T13:13:42;3.70;;;2.05;;
62102;SDS011;48077;48.104;11.702;2022-08-01T13:16:10;2.55;;;1.77;;
62102;SDS011;48077;48.104;11.702;2022-08-01T13:18:34;5.10;;;2.22;;
62102;SDS011;48077;48.104;11.702;2022-08-01T13:23:42;2.85;;;1.60;;
62102;SDS011;48077;48.104;11.702;2022-08-01T13:26:42;3.57;;;1.83;;
62102;SDS011;48077;48.104;11.702;2022-08-01T13:29:08;2.33;;;1.90;;
62102;SDS011;48077;48.104;11.702;2022-08-01T13:31:32;3.55;;;1.90;;
62102;SDS011;48077;48.104;11.702;2022-08-01T13:33:56;2.42;;;1.67;;
62102;SDS011;48077;48.104;11.702;2022-08-01T13:36:20;3.00;;;2.00;;
62102;SDS011;48077;48.104;11.702;2022-08-01T13:38:43;2.50;;;1.70;;
62102;SDS011;48077;48.104;11.702;2022-08-01T13:41:25;4.57;;;1.70;;
62102;SDS011;48077;48.104;11.702;2022-08-01T13:43:50;8.25;;;1.95;;
62102;SDS011;48077;48.104;11.702;2022-08-01T13:46:13;2.20;;;1.67;;
62102;SDS011;48077;48.104;11.702;2022-08-01T13:48:37;6.05;;;1.90;;
62102;SDS011;48077;48.104;11.702;2022-08-01T13:51:00;3.10;;;1.67;;
62102;SDS011;48077;48.104;11.702;2022-08-01T13:53:24;4.28;;;1.83;;
62102;SDS011;48077;48.104;11.702;2022-08-01T13:55:48;3.25;;;1.77;;
62102;SDS011;48077;48.104;11.702;2022-08-01T13:58:12;2.58;;;1.48;;
62102;SDS011;48077;48.104;11.702;2022-08-01T14:00:35;2.05;;;1.55;;
62102;SDS011;48077;48.104;11.702;2022-08-01T14:03:00;2.25;;;1.48;;
62102;SDS011;48077;48.104;11.702;2022-08-01T14:05:24;3.20;;;1.48;;
62102;SDS011;48077;48.104;11.702;2022-08-01T14:07:56;2.95;;;1.35;;
62102;SDS011;48077;48.104;11.702;2022-08-01T14:10:20;2.38;;;1.58;;
62102;SDS011;48077;48.104;11.702;2022-08-01T14:12:51;2.15;;;1.95;;
62102;SDS011;48077;48.104;11.702;2022-08-01T14:15:15;2.65;;;2.00;;
62102;SDS011;48077;48.104;11.702;2022-08-01T14:17:39;3.33;;;1.45;;
62102;SDS011;48077;48.104;11.702;2022-08-01T14:20:02;1.48;;;1.10;;
62102;SDS011;48077;48.104;11.702;2022-08-01T14:22:28;2.05;;;1.30;;
62102;SDS011;48077;48.104;11.702;2022-08-01T14:24:51;1.42;;;1.10;;
62102;SDS011;48077;48.104;11.702;2022-08-01T14:27:15;2.60;;;1.30;;
62102;SDS011;48077;48.104;11.702;2022-08-01T14:29:39;3.83;;;1.50;;
62102;SDS011;48077;48.104;11.702;2022-08-01T14:32:02;2.55;;;1.33;;
62102;SDS011;48077;48.104;11.702;2022-08-01T14:34:26;2.15;;;1.20;;
62102;SDS011;48077;48.104;11.702;2022-08-01T14:36:50;1.98;;;1.33;;
62102;SDS011;48077;48.104;11.702;2022-08-01T14:39:13;3.25;;;2.15;;
62102;SDS011;48077;48.104;11.702;2022-08-01T14:41:36;2.78;;;1.60;;
62102;SDS011;48077;48.104;11.702;2022-08-01T14:44:00;2.67;;;1.50;;
62102;SDS011;48077;48.104;11.702;2022-08-01T14:46:24;1.95;;;1.70;;
62102;SDS011;48077;48.104;11.702;2022-08-01T14:48:47;2.72;;;1.77;;
62102;SDS011;48077;48.104;11.702;2022-08-01T14:51:11;2.72;;;1.70;;
62102;SDS011;48077;48.104;11.702;2022-08-01T14:53:34;2.85;;;1.83;;
62102;SDS011;48077;48.104;11.702;2022-08-01T14:56:00;1.90;;;1.70;;
62102;SDS011;48077;48.104;11.702;2022-08-01T14:58:24;3.13;;;1.58;;
62102;SDS011;48077;48.104;11.702;2022-08-01T15:00:47;2.13;;;1.85;;
62102;SDS011;48077;48.104;11.702;2022-08-01T15:03:10;3.03;;;1.85;;
62102;SDS011;48077;48.104;11.702;2022-08-01T15:05:34;2.67;;;1.67;;
62102;SDS011;48077;48.104;11.702;2022-08-01T15:07:58;3.13;;;1.95;;
62102;SDS011;48077;48.104;11.702;2022-08-01T15:10:22;2.55;;;1.88;;
62102;SDS011;48077;48.104;11.702;2022-08-01T15:12:45;3.38;;;2.08;;
62102;SDS011;48077;48.104;11.702;2022-08-01T15:15:09;4.25;;;2.67;;
62102;SDS011;48077;48.104;11.702;2022-08-01T15:17:33;2.60;;;1.85;;